Terminal Aerodrome Forecast
Issued by NWS

Home | Current Version | Previous Version | Text Only | Print | Product List | Glossary On
Versions: 1 2 3 4 5 6 7 8 9 10 11 12 13
000
FTUS42 KTAE 200500
TAFDHN
TAF
KDHN 200539Z 2006/2106 35005KT 6SM -RA BKN025 OVC050
      TEMPO 2008/2012 BKN008
     FM201200 05007KT P6SM OVC008
     FM201600 04006KT P6SM BKN025 OVC070
     FM210100 04004KT P6SM OVC020=

USA.gov is the U.S. government's official web portal to all federal, state and local government web resources and services.